createdAt,value
2018-03-01T00:00:43.336Z,20.40
2018-03-01T00:03:11.555Z,20.80
2018-03-01T00:05:39.011Z,22.47
2018-03-01T00:08:06.461Z,24.30
2018-03-01T00:10:33.937Z,20.43
2018-03-01T00:13:01.443Z,24.63
2018-03-01T00:15:28.927Z,23.90
2018-03-01T00:17:56.381Z,21.50
2018-03-01T00:20:23.938Z,20.70
2018-03-01T00:22:51.398Z,16.13
2018-03-01T00:25:18.881Z,20.23
2018-03-01T00:27:46.354Z,19.70
2018-03-01T00:30:14.558Z,22.37
2018-03-01T00:32:42.031Z,15.97
2018-03-01T00:35:09.504Z,19.43
2018-03-01T00:37:36.957Z,18.67
2018-03-01T00:40:04.429Z,20.47
2018-03-01T00:42:31.877Z,20.23
2018-03-01T00:44:59.339Z,21.80
2018-03-01T00:47:26.811Z,23.27
2018-03-01T00:49:54.302Z,18.17
2018-03-01T00:52:21.757Z,19.40
2018-03-01T00:54:49.226Z,21.07
2018-03-01T00:57:16.711Z,17.90
2018-03-01T00:59:44.176Z,17.07
2018-03-01T01:02:11.632Z,17.13
2018-03-01T01:04:39.095Z,16.17
2018-03-01T01:07:06.600Z,18.37
2018-03-01T01:09:34.061Z,24.50
2018-03-01T01:12:01.532Z,19.87
2018-03-01T01:14:28.994Z,19.43
2018-03-01T01:16:56.476Z,18.07
2018-03-01T01:19:23.940Z,15.27
2018-03-01T01:21:51.532Z,19.00
2018-03-01T01:24:19.832Z,19.30
2018-03-01T01:26:47.252Z,16.47
2018-03-01T01:29:14.731Z,16.57
2018-03-01T01:31:42.221Z,16.00
2018-03-01T01:34:10.475Z,16.40
2018-03-01T01:36:37.948Z,18.87
2018-03-01T01:39:05.432Z,18.17
2018-03-01T01:41:33.683Z,18.13
2018-03-01T01:44:01.176Z,15.83
2018-03-01T01:46:29.409Z,19.20
2018-03-01T01:48:57.646Z,20.83
2018-03-01T01:51:25.877Z,20.30
2018-03-01T01:53:53.330Z,17.37
2018-03-01T01:56:20.847Z,19.53
2018-03-01T01:58:49.104Z,17.77
2018-03-01T02:01:16.574Z,18.37
2018-03-01T02:03:44.028Z,16.43
2018-03-01T02:06:11.501Z,20.63
2018-03-01T02:08:38.961Z,16.27
2018-03-01T02:11:06.437Z,18.67
2018-03-01T02:13:34.675Z,16.37
2018-03-01T02:16:02.157Z,19.13
2018-03-01T02:18:29.679Z,20.70
2018-03-01T02:20:57.146Z,19.77
2018-03-01T02:23:24.621Z,17.80
2018-03-01T02:25:52.111Z,18.70
2018-03-01T02:28:19.561Z,20.83
2018-03-01T02:30:47.795Z,21.27
2018-03-01T02:33:15.265Z,17.20
2018-03-01T02:35:42.729Z,15.83
2018-03-01T02:38:10.199Z,16.50
2018-03-01T02:40:38.366Z,15.83
2018-03-01T02:43:05.837Z,16.27
2018-03-01T02:45:33.326Z,17.30
2018-03-01T02:48:00.832Z,26.70
2018-03-01T02:50:29.081Z,22.97
2018-03-01T02:52:56.545Z,18.43
2018-03-01T02:55:24.032Z,22.23
2018-03-01T02:57:52.279Z,16.63
2018-03-01T03:00:19.808Z,16.37
2018-03-01T03:02:47.265Z,17.10
2018-03-01T03:05:14.762Z,18.47
2018-03-01T03:07:42.250Z,20.07
2018-03-01T03:10:09.731Z,16.83
2018-03-01T03:12:37.207Z,15.43
2018-03-01T03:15:05.468Z,16.63
2018-03-01T03:17:32.953Z,19.70
2018-03-01T03:20:01.263Z,23.73
2018-03-01T03:22:28.707Z,18.40
2018-03-01T03:24:56.180Z,16.70
2018-03-01T03:27:23.639Z,18.23
2018-03-01T03:29:51.112Z,20.83
2018-03-01T03:32:18.579Z,19.77
2018-03-01T03:34:46.034Z,19.70
2018-03-01T03:37:13.508Z,20.70
2018-03-01T03:39:41.002Z,19.13
2018-03-01T03:42:08.547Z,20.50
2018-03-01T03:44:36.007Z,20.00
2018-03-01T03:47:03.460Z,20.83
2018-03-01T03:49:30.920Z,17.10
2018-03-01T03:51:58.385Z,23.07
2018-03-01T03:54:25.843Z,14.37
2018-03-01T03:56:53.306Z,17.30
2018-03-01T03:59:20.764Z,15.37
2018-03-01T04:01:48.267Z,17.20
2018-03-01T04:04:15.742Z,16.63
2018-03-01T04:06:43.234Z,18.97
2018-03-01T04:09:11.462Z,18.23
2018-03-01T04:11:38.935Z,19.37
2018-03-01T04:14:06.374Z,20.07
2018-03-01T04:16:33.846Z,17.30
2018-03-01T04:19:01.314Z,19.30
2018-03-01T04:21:28.760Z,18.13
2018-03-01T04:23:56.246Z,23.87
2018-03-01T04:26:23.713Z,20.83
2018-03-01T04:28:51.183Z,19.80
2018-03-01T04:31:18.629Z,17.77
2018-03-01T04:33:46.083Z,25.97
2018-03-01T04:36:13.535Z,21.40
2018-03-01T04:38:41.022Z,20.40
2018-03-01T04:41:08.484Z,18.63
2018-03-01T04:43:36.694Z,14.03
2018-03-01T04:46:04.915Z,18.03
2018-03-01T04:48:32.382Z,17.37
2018-03-01T04:50:59.834Z,27.07
2018-03-01T04:53:27.286Z,20.07
2018-03-01T04:55:54.762Z,15.70
2018-03-01T04:58:22.285Z,17.17
2018-03-01T05:00:49.749Z,16.37
2018-03-01T05:03:17.992Z,21.67
2018-03-01T05:05:45.452Z,22.33
2018-03-01T05:08:12.944Z,22.17
2018-03-01T05:10:40.415Z,23.37
2018-03-01T05:13:07.924Z,21.10
2018-03-01T05:15:36.101Z,16.60
2018-03-01T05:18:03.563Z,19.97
2018-03-01T05:20:31.049Z,17.00
2018-03-01T05:22:59.270Z,22.47
2018-03-01T05:25:27.491Z,19.30
2018-03-01T05:27:55.754Z,18.60
2018-03-01T05:30:23.271Z,22.40
2018-03-01T05:32:51.408Z,20.07
2018-03-01T05:35:18.885Z,18.97
2018-03-01T05:37:46.347Z,20.43
2018-03-01T05:40:13.834Z,28.00
2018-03-01T05:42:41.296Z,18.27
2018-03-01T05:45:08.753Z,17.87
2018-03-01T05:47:36.292Z,19.17
2018-03-01T05:50:03.699Z,15.60
2018-03-01T05:52:31.193Z,17.43
2018-03-01T05:54:59.444Z,21.93
2018-03-01T05:57:26.954Z,23.47
2018-03-01T05:59:54.413Z,21.00
2018-03-01T06:02:21.891Z,20.00
2018-03-01T06:04:49.360Z,20.13
2018-03-01T06:07:16.846Z,20.67
2018-03-01T06:09:45.075Z,20.17
2018-03-01T06:12:12.540Z,19.87
2018-03-01T06:14:40.116Z,22.27
2018-03-01T06:17:07.594Z,21.93
2018-03-01T06:19:35.058Z,17.70
2018-03-01T06:22:02.532Z,18.77
2018-03-01T06:24:29.974Z,18.60
2018-03-01T06:26:57.433Z,22.27
2018-03-01T06:29:24.888Z,23.17
2018-03-01T06:31:52.384Z,21.57
2018-03-01T06:34:19.838Z,21.50
2018-03-01T06:36:47.282Z,19.07
2018-03-01T06:39:14.724Z,19.47
2018-03-01T06:41:42.192Z,18.83
2018-03-01T06:44:09.644Z,19.37
2018-03-01T06:46:37.858Z,18.60
2018-03-01T06:49:05.319Z,14.93
2018-03-01T06:51:32.741Z,22.13
2018-03-01T06:54:00.974Z,19.77
2018-03-01T06:56:28.421Z,20.20
2018-03-01T06:58:55.883Z,21.63
2018-03-01T07:01:23.336Z,18.43
2018-03-01T07:03:50.790Z,24.20
2018-03-01T07:06:18.241Z,20.77
2018-03-01T07:08:46.473Z,20.47
2018-03-01T07:11:13.928Z,19.60
2018-03-01T07:13:41.403Z,22.73
2018-03-01T07:16:08.880Z,18.43
2018-03-01T07:18:36.315Z,20.63
2018-03-01T07:21:03.761Z,17.10
2018-03-01T07:23:31.219Z,18.07
2018-03-01T07:25:58.688Z,18.87
2018-03-01T07:28:26.122Z,19.37
2018-03-01T07:30:54.351Z,18.67
2018-03-01T07:33:21.811Z,17.53
2018-03-01T07:35:49.275Z,20.53
2018-03-01T07:38:16.732Z,17.10
2018-03-01T07:40:44.186Z,18.48
2018-03-01T07:43:11.639Z,21.53
2018-03-01T07:45:39.115Z,17.37
2018-03-01T07:48:06.575Z,20.57
2018-03-01T07:50:34.027Z,17.63
2018-03-01T07:53:01.511Z,18.80
2018-03-01T07:55:28.960Z,16.63
2018-03-01T07:57:56.415Z,21.27
2018-03-01T08:00:23.866Z,18.47
2018-03-01T08:02:51.314Z,23.93
2018-03-01T08:05:19.523Z,16.27
2018-03-01T08:07:46.993Z,15.53
2018-03-01T08:10:14.449Z,19.33
2018-03-01T08:12:41.920Z,15.77
2018-03-01T08:15:09.390Z,17.47
2018-03-01T08:17:36.903Z,16.50
2018-03-01T08:20:05.151Z,17.13
2018-03-01T08:22:32.599Z,16.60
2018-03-01T08:25:00.050Z,14.73
2018-03-01T08:27:27.513Z,18.70
2018-03-01T08:29:54.974Z,16.70
2018-03-01T08:32:22.431Z,15.53
2018-03-01T08:34:49.910Z,17.83
2018-03-01T08:37:17.375Z,15.47
2018-03-01T08:39:44.814Z,19.87
2018-03-01T08:42:12.281Z,18.73
2018-03-01T08:44:39.735Z,17.37
2018-03-01T08:47:07.199Z,17.07
2018-03-01T08:49:34.667Z,15.47
2018-03-01T08:52:02.137Z,13.67
2018-03-01T08:54:29.630Z,16.60
2018-03-01T08:56:57.128Z,20.70
2018-03-01T08:59:24.579Z,18.57
2018-03-01T09:01:52.022Z,16.03
2018-03-01T09:04:19.490Z,22.27
2018-03-01T09:06:46.935Z,17.47
2018-03-01T09:09:14.378Z,15.97
2018-03-01T09:11:42.128Z,16.43
2018-03-01T09:14:09.585Z,15.03
2018-03-01T09:16:37.067Z,15.40
2018-03-01T09:19:04.529Z,15.87
2018-03-01T09:21:31.983Z,19.37
2018-03-01T09:23:59.442Z,17.93
2018-03-01T09:26:26.919Z,14.77
2018-03-01T09:28:54.387Z,21.07
2018-03-01T09:31:21.855Z,22.87
2018-03-01T09:33:49.620Z,16.50
2018-03-01T09:36:17.084Z,11.40
2018-03-01T09:38:44.534Z,15.13
2018-03-01T09:41:12.032Z,15.07
2018-03-01T09:43:39.490Z,13.50
2018-03-01T09:46:06.930Z,13.90
2018-03-01T09:48:34.370Z,16.27
2018-03-01T09:51:01.818Z,18.37
2018-03-01T09:53:30.030Z,15.77
2018-03-01T09:55:57.470Z,16.97
2018-03-01T09:58:25.697Z,18.03
2018-03-01T10:00:53.162Z,16.03
2018-03-01T10:03:20.604Z,16.07
2018-03-01T10:05:48.076Z,12.80
2018-03-01T10:08:15.526Z,15.47
2018-03-01T10:10:42.991Z,17.23
2018-03-01T10:13:10.443Z,16.23
2018-03-01T10:15:37.904Z,19.70
2018-03-01T10:18:05.387Z,14.40
2018-03-01T10:20:32.832Z,14.97
2018-03-01T10:23:00.282Z,17.83
2018-03-01T10:25:27.763Z,14.37
2018-03-01T10:27:55.223Z,11.50
2018-03-01T10:30:22.666Z,10.07
2018-03-01T10:32:50.894Z,21.53
2018-03-01T10:35:18.376Z,13.00
2018-03-01T10:37:45.828Z,20.60
2018-03-01T10:40:13.283Z,14.10
2018-03-01T10:42:40.746Z,18.53
2018-03-01T10:45:08.201Z,13.60
2018-03-01T10:47:35.674Z,11.17
2018-03-01T10:50:03.130Z,19.50
2018-03-01T10:52:30.592Z,13.23
2018-03-01T10:54:58.105Z,13.43
2018-03-01T10:57:26.327Z,12.17
2018-03-01T10:59:53.798Z,13.47
2018-03-01T11:02:21.246Z,15.07
2018-03-01T11:04:48.707Z,18.00
2018-03-01T11:07:16.173Z,11.83
2018-03-01T11:09:43.615Z,11.00
2018-03-01T11:12:11.126Z,12.57
2018-03-01T11:14:38.567Z,19.63
2018-03-01T11:17:06.024Z,12.70
2018-03-01T11:19:33.459Z,14.07
2018-03-01T11:22:01.688Z,14.23
2018-03-01T11:24:29.148Z,15.57
2018-03-01T11:26:56.626Z,16.07
2018-03-01T11:29:24.088Z,13.73
2018-03-01T11:31:51.551Z,18.23
2018-03-01T11:34:19.025Z,15.30
2018-03-01T11:36:46.464Z,21.23
2018-03-01T11:39:13.924Z,10.60
2018-03-01T11:41:41.379Z,14.83
2018-03-01T11:44:08.830Z,14.73
2018-03-01T11:46:36.290Z,13.80
2018-03-01T11:49:03.760Z,17.77
2018-03-01T11:51:31.228Z,16.70
2018-03-01T11:53:58.739Z,11.03
2018-03-01T11:56:26.214Z,19.03
2018-03-01T11:58:54.468Z,12.80
2018-03-01T12:01:21.923Z,18.87
2018-03-01T12:03:49.378Z,9.07
2018-03-01T12:06:16.941Z,12.87
2018-03-01T12:08:44.378Z,14.50
2018-03-01T12:11:11.840Z,13.50
2018-03-01T12:13:39.292Z,13.20
2018-03-01T12:16:06.778Z,16.17
2018-03-01T12:18:34.236Z,15.93
2018-03-01T12:21:01.686Z,14.83
2018-03-01T12:23:29.180Z,15.40
2018-03-01T12:25:56.644Z,14.10
2018-03-01T12:28:24.095Z,13.20
2018-03-01T12:30:51.604Z,11.53
2018-03-01T12:33:19.064Z,11.87
2018-03-01T12:35:47.310Z,9.80
2018-03-01T12:38:14.780Z,15.60
2018-03-01T12:40:42.251Z,12.47
2018-03-01T12:43:09.806Z,14.53
2018-03-01T12:45:37.250Z,14.20
2018-03-01T12:48:04.682Z,13.87
2018-03-01T12:50:32.162Z,13.30
2018-03-01T12:52:59.635Z,14.67
2018-03-01T12:55:27.097Z,9.80
2018-03-01T12:57:54.555Z,11.60
2018-03-01T13:00:22.012Z,12.80
2018-03-01T13:02:49.486Z,12.90
2018-03-01T13:05:20.391Z,8.33
2018-03-01T13:07:48.606Z,16.20
2018-03-01T13:10:16.084Z,16.83
2018-03-01T13:12:43.554Z,13.37
2018-03-01T13:15:11.016Z,13.57
2018-03-01T13:17:38.503Z,11.43
2018-03-01T13:20:05.955Z,11.23
2018-03-01T13:22:33.390Z,14.33
2018-03-01T13:25:00.850Z,12.50
2018-03-01T13:27:28.307Z,12.30
2018-03-01T13:29:57.388Z,19.17
2018-03-01T13:32:42.661Z,14.33
2018-03-01T13:35:20.799Z,14.67
2018-03-01T13:37:48.274Z,14.00
2018-03-01T13:40:15.724Z,14.40
2018-03-01T13:42:53.116Z,11.53
2018-03-01T13:45:20.585Z,12.37
2018-03-01T13:47:48.065Z,13.23
2018-03-01T13:50:15.595Z,15.30
2018-03-01T13:52:43.062Z,11.00
2018-03-01T13:55:10.518Z,14.77
2018-03-01T13:57:37.978Z,12.87
2018-03-01T14:00:05.445Z,13.57
2018-03-01T14:02:32.924Z,13.10
2018-03-01T14:05:00.392Z,11.70
2018-03-01T14:10:22.718Z,14.20
2018-03-01T14:12:54.163Z,14.93
2018-03-01T14:15:21.648Z,14.03
2018-03-01T14:18:08.925Z,14.10
2018-03-01T14:20:37.307Z,12.77
2018-03-01T14:23:11.200Z,12.07
2018-03-01T14:25:55.249Z,13.10
2018-03-01T14:28:28.346Z,11.60
2018-03-01T14:30:56.576Z,14.10
2018-03-01T14:33:24.070Z,16.53
2018-03-01T14:35:52.333Z,11.13
2018-03-01T14:38:19.791Z,15.67
2018-03-01T14:40:47.262Z,21.13
2018-03-01T14:43:14.722Z,11.80
2018-03-01T14:45:42.171Z,14.67
2018-03-01T14:48:09.618Z,13.80
2018-03-01T14:50:37.125Z,13.73
2018-03-01T14:53:05.358Z,15.13
2018-03-01T14:55:32.815Z,12.97
2018-03-01T14:58:00.348Z,12.93
2018-03-01T15:00:28.544Z,11.60
2018-03-01T15:02:56.008Z,17.83
2018-03-01T15:05:23.471Z,13.10
2018-03-01T15:07:50.933Z,13.37
2018-03-01T15:10:18.390Z,15.93
2018-03-01T15:12:45.854Z,11.53
2018-03-01T15:15:13.303Z,10.13
2018-03-01T15:17:41.530Z,11.07
2018-03-01T15:20:09.758Z,12.53
2018-03-01T15:22:37.984Z,11.60
2018-03-01T15:25:05.464Z,13.73
2018-03-01T15:27:33.677Z,12.87
2018-03-01T15:30:01.923Z,16.10
2018-03-01T15:32:29.366Z,13.20
2018-03-01T15:34:56.819Z,12.93
2018-03-01T15:37:24.286Z,11.57
2018-03-01T15:39:51.740Z,13.50
2018-03-01T15:42:19.210Z,11.53
2018-03-01T15:44:46.697Z,16.87
2018-03-01T15:47:14.166Z,12.47
2018-03-01T15:49:41.628Z,13.13
2018-03-01T15:52:09.103Z,14.27
2018-03-01T15:54:36.675Z,11.93
2018-03-01T15:57:04.135Z,15.83
2018-03-01T15:59:31.594Z,14.73
2018-03-01T16:01:59.066Z,12.03
2018-03-01T16:04:26.534Z,14.63
2018-03-01T16:06:54.746Z,12.63
2018-03-01T16:09:22.218Z,17.37
2018-03-01T16:11:49.673Z,14.27
2018-03-01T16:14:17.120Z,14.83
2018-03-01T16:16:44.573Z,12.43
2018-03-01T16:19:12.822Z,10.50
2018-03-01T16:21:40.277Z,12.37
2018-03-01T16:24:07.749Z,10.97
2018-03-01T16:26:35.214Z,14.33
2018-03-01T16:29:02.688Z,11.93
2018-03-01T16:31:30.155Z,10.47
2018-03-01T16:33:58.386Z,14.27
2018-03-01T16:36:25.858Z,10.00
2018-03-01T16:38:53.324Z,9.73
2018-03-01T16:41:20.793Z,12.83
2018-03-01T16:43:49.003Z,9.93
2018-03-01T16:46:16.492Z,16.27
2018-03-01T16:48:43.999Z,11.50
2018-03-01T16:51:11.457Z,16.47
2018-03-01T16:53:38.917Z,14.03
2018-03-01T16:56:06.359Z,11.30
2018-03-01T16:58:33.828Z,12.37
2018-03-01T17:01:01.292Z,10.63
2018-03-01T17:03:28.747Z,12.03
2018-03-01T17:05:56.225Z,14.07
2018-03-01T17:08:23.663Z,13.77
2018-03-01T17:10:51.144Z,11.03
2018-03-01T17:13:18.620Z,10.90
2018-03-01T17:15:46.100Z,8.87
2018-03-01T17:18:13.564Z,11.07
2018-03-01T17:20:41.018Z,9.57
2018-03-01T17:23:08.487Z,10.77
2018-03-01T17:25:35.946Z,10.87
2018-03-01T17:28:03.415Z,10.47
2018-03-01T17:30:30.885Z,14.50
2018-03-01T17:32:58.335Z,16.73
2018-03-01T17:35:25.872Z,12.37
2018-03-01T17:37:53.314Z,15.60
2018-03-01T17:40:20.803Z,11.23
2018-03-01T17:42:48.250Z,10.63
2018-03-01T17:45:15.722Z,12.23
2018-03-01T17:47:43.175Z,9.50
2018-03-01T17:50:10.669Z,12.90
2018-03-01T17:52:38.129Z,11.13
2018-03-01T17:55:05.598Z,9.73
2018-03-01T17:57:33.061Z,13.47
2018-03-01T18:00:00.545Z,11.83
2018-03-01T18:02:28.015Z,10.67
2018-03-01T18:04:55.487Z,11.00
2018-03-01T18:07:23.764Z,12.57
2018-03-01T18:09:51.298Z,15.37
2018-03-01T18:12:18.764Z,12.50
2018-03-01T18:14:46.240Z,9.93
2018-03-01T18:17:13.724Z,19.27
2018-03-01T18:19:41.954Z,12.83
2018-03-01T18:22:09.427Z,7.70
2018-03-01T18:24:36.891Z,13.53
2018-03-01T18:27:04.346Z,12.73
2018-03-01T18:29:31.806Z,10.87
2018-03-01T18:31:59.267Z,10.60
2018-03-01T18:34:27.493Z,11.60
2018-03-01T18:36:54.956Z,10.50
2018-03-01T18:39:23.182Z,9.83
2018-03-01T18:41:50.652Z,16.00
2018-03-01T18:44:18.136Z,9.80
2018-03-01T18:46:45.629Z,9.77
2018-03-01T18:49:13.131Z,10.07
2018-03-01T18:51:40.596Z,11.47
2018-03-01T18:54:08.030Z,14.33
2018-03-01T18:56:35.490Z,11.63
2018-03-01T18:59:03.808Z,10.40
2018-03-01T19:01:31.279Z,11.03
2018-03-01T19:03:58.742Z,13.60
2018-03-01T19:06:26.222Z,12.93
2018-03-01T19:08:53.735Z,15.13
2018-03-01T19:11:21.946Z,13.23
2018-03-01T19:13:49.400Z,10.27
2018-03-01T19:16:16.951Z,9.67
2018-03-01T19:18:44.397Z,8.93
2018-03-01T19:21:11.890Z,14.27
2018-03-01T19:23:39.342Z,8.63
2018-03-01T19:26:06.794Z,11.00
2018-03-01T19:28:34.278Z,15.30
2018-03-01T19:31:01.718Z,10.37
2018-03-01T19:33:29.170Z,8.90
2018-03-01T19:35:57.420Z,12.13
2018-03-01T19:38:24.873Z,10.33
2018-03-01T19:40:52.333Z,15.00
2018-03-01T19:43:19.809Z,10.50
2018-03-01T19:45:47.270Z,14.43
2018-03-01T19:48:14.728Z,14.30
2018-03-01T19:50:42.209Z,13.17
2018-03-01T19:53:09.716Z,15.83
2018-03-01T19:55:37.114Z,10.30
2018-03-01T19:58:04.572Z,11.43
2018-03-01T20:00:32.048Z,8.60
2018-03-01T20:02:59.497Z,13.10
2018-03-01T20:05:26.947Z,10.10
2018-03-01T20:07:54.407Z,9.00
2018-03-01T20:10:21.857Z,10.67
2018-03-01T20:12:49.325Z,9.97
2018-03-01T20:15:16.790Z,15.33
2018-03-01T20:17:44.245Z,11.10
2018-03-01T20:20:11.706Z,10.20
2018-03-01T20:22:39.174Z,12.27
2018-03-01T20:25:06.673Z,13.83
2018-03-01T20:27:34.137Z,12.00
2018-03-01T20:30:01.595Z,11.80
2018-03-01T20:32:29.045Z,10.47
2018-03-01T20:34:56.487Z,12.07
2018-03-01T20:37:23.992Z,10.53
2018-03-01T20:39:51.451Z,13.27
2018-03-01T20:42:18.921Z,10.70
2018-03-01T20:44:46.374Z,10.00
2018-03-01T20:47:13.831Z,10.97
2018-03-01T20:49:41.299Z,12.87
2018-03-01T20:52:08.768Z,11.60
2018-03-01T20:54:36.218Z,13.17
2018-03-01T20:57:03.675Z,13.03
2018-03-01T20:59:31.127Z,11.70
2018-03-01T21:01:58.592Z,13.10
2018-03-01T21:04:26.048Z,13.97
2018-03-01T21:06:53.515Z,12.80
2018-03-01T21:09:20.972Z,12.57
2018-03-01T21:11:48.425Z,10.97
2018-03-01T21:14:15.895Z,13.20
2018-03-01T21:16:43.346Z,9.90
2018-03-01T21:19:10.808Z,9.10
2018-03-01T21:21:38.262Z,11.30
2018-03-01T21:24:05.764Z,10.33
2018-03-01T21:26:33.224Z,10.60
2018-03-01T21:29:00.684Z,12.23
2018-03-01T21:31:28.124Z,12.57
2018-03-01T21:33:55.590Z,11.57
2018-03-01T21:36:23.054Z,13.87
2018-03-01T21:38:50.510Z,11.90
2018-03-01T21:41:17.977Z,10.60
2018-03-01T21:43:45.456Z,12.90
2018-03-01T21:46:14.790Z,11.63
2018-03-01T21:48:42.233Z,16.17
2018-03-01T21:51:09.702Z,10.83
2018-03-01T21:53:37.158Z,13.17
2018-03-01T21:56:04.657Z,13.50
2018-03-01T21:58:32.058Z,11.80
2018-03-01T22:00:59.527Z,10.77
2018-03-01T22:03:26.963Z,14.13
2018-03-01T22:05:54.416Z,10.67
2018-03-01T22:08:21.915Z,14.87
2018-03-01T22:10:49.367Z,10.43
2018-03-01T22:13:16.822Z,10.63
2018-03-01T22:15:44.318Z,13.00
2018-03-01T22:18:11.723Z,14.30
2018-03-01T22:20:39.946Z,10.50
2018-03-01T22:23:07.416Z,10.77
2018-03-01T22:25:34.864Z,11.67
2018-03-01T22:28:02.319Z,9.67
2018-03-01T22:30:29.770Z,10.27
2018-03-01T22:32:57.231Z,12.47
2018-03-01T22:35:24.681Z,11.53
2018-03-01T22:37:52.900Z,10.67
2018-03-01T22:40:20.351Z,10.37
2018-03-01T22:42:47.804Z,14.73
2018-03-01T22:45:15.251Z,13.83
2018-03-01T22:47:43.486Z,10.73
2018-03-01T22:50:10.948Z,15.10
2018-03-01T22:52:38.411Z,13.63
2018-03-01T22:55:05.911Z,11.60
2018-03-01T22:57:33.347Z,11.70
2018-03-01T23:00:00.837Z,10.73
2018-03-01T23:02:29.058Z,12.03
2018-03-01T23:04:56.518Z,11.20
2018-03-01T23:07:23.982Z,9.57
2018-03-01T23:09:51.469Z,13.30
2018-03-01T23:12:18.926Z,11.13
2018-03-01T23:14:46.380Z,15.53
2018-03-01T23:17:13.838Z,11.27
2018-03-01T23:19:41.277Z,10.23
2018-03-01T23:22:08.771Z,11.23
2018-03-01T23:24:36.216Z,13.17
2018-03-01T23:27:03.679Z,11.70
2018-03-01T23:29:31.127Z,10.50
2018-03-01T23:31:58.606Z,17.23
2018-03-01T23:34:26.044Z,10.87
2018-03-01T23:36:53.558Z,10.03
2018-03-01T23:39:21.774Z,12.67
2018-03-01T23:41:49.995Z,11.07
2018-03-01T23:44:17.452Z,11.13
2018-03-01T23:46:44.909Z,14.27
2018-03-01T23:49:12.379Z,10.37
2018-03-01T23:51:39.829Z,11.90
2018-03-01T23:54:07.263Z,13.20
2018-03-01T23:56:34.722Z,13.50
2018-03-01T23:59:02.180Z,12.13
